Aviation Digital Data Service (ADDS)

Output produced by METARs form (0242 UTC 24 July 2017)
found at http://www.aviationweather.gov/adds/metars/
 
VDSR 240230Z 28005KT 9999 SCT015 BKN040 28/26 Q1006
TAF VDSR 232300Z 2400/2418 25007KT 9999 SCT020 
     TEMPO 2407/2411 SCT015 FEW017CB